Time;durP1;ratioP1;P1;durP2;ratioP2;P2;SDS_P1;SDS_P2;PMS_P1;PMS_P2;Temp;Humidity;BMP_temperature;BMP_pressure;BME280_temperature;BME280_humidity;BME280_pressure;Samples;Min_cycle;Max_cycle;Signal;HPM_P1;HPM_P2
2023/12/12 00:01:01;;;;;;;6.40;1.98;;;;;;;8.56;69.91;100127.34;4997921;28;20072;-39
2023/12/12 00:03:27;;;;;;;4.10;1.98;;;;;;;8.76;69.80;100134.06;5005542;28;20034;-40
2023/12/12 00:05:52;;;;;;;3.15;1.30;;;;;;;8.67;69.60;100135.47;4998880;28;20038;-39
2023/12/12 00:08:18;;;;;;;2.85;1.30;;;;;;;8.65;69.25;100155.69;5001187;28;20033;-40
2023/12/12 00:10:43;;;;;;;5.15;1.75;;;;;;;8.92;68.61;100149.72;5007301;28;20023;-39
2023/12/12 00:13:09;;;;;;;6.53;2.05;;;;;;;8.80;68.94;100157.41;5002520;28;20082;-40
2023/12/12 00:15:34;;;;;;;5.75;1.98;;;;;;;8.70;69.44;100161.47;5005760;28;20092;-39
2023/12/12 00:18:00;;;;;;;4.30;1.73;;;;;;;8.71;69.51;100171.03;5000483;28;20039;-39
2023/12/12 00:20:25;;;;;;;1.98;0.93;;;;;;;8.75;69.10;100167.31;5002663;28;20025;-39
2023/12/12 00:22:51;;;;;;;3.05;1.42;;;;;;;8.83;68.90;100174.72;5003819;28;20034;-39
2023/12/12 00:25:16;;;;;;;4.00;1.95;;;;;;;8.69;69.11;100167.69;5001414;28;20515;-39
2023/12/12 00:27:42;;;;;;;3.15;1.63;;;;;;;8.81;68.85;100172.19;5000971;28;20420;-39
2023/12/12 00:30:08;;;;;;;4.25;1.65;;;;;;;8.64;69.41;100181.06;4999311;28;20100;-39
2023/12/12 00:32:34;;;;;;;2.20;1.20;;;;;;;8.51;69.39;100182.72;5006067;28;20568;-39
2023/12/12 00:34:59;;;;;;;3.42;1.60;;;;;;;8.60;69.29;100176.09;5005653;28;20022;-38
2023/12/12 00:37:25;;;;;;;3.83;1.75;;;;;;;8.59;69.66;100190.13;4996991;28;20408;-39
2023/12/12 00:39:51;;;;;;;1.52;0.85;;;;;;;8.51;69.74;100187.94;5005056;28;20550;-39
2023/12/12 00:42:16;;;;;;;3.53;1.60;;;;;;;8.71;69.02;100184.16;5010497;28;20037;-39
2023/12/12 00:44:42;;;;;;;3.38;1.35;;;;;;;8.81;68.82;100187.94;4996013;28;20084;-39
2023/12/12 00:47:07;;;;;;;3.63;1.63;;;;;;;8.82;68.84;100197.50;5004249;28;20112;-39
2023/12/12 00:49:33;;;;;;;2.65;1.48;;;;;;;8.84;68.44;100200.88;5001014;28;20037;-39
2023/12/12 00:51:58;;;;;;;2.90;1.48;;;;;;;9.05;68.01;100211.03;5008198;28;20030;-40
2023/12/12 00:54:24;;;;;;;3.92;1.75;;;;;;;9.00;67.86;100220.94;5000120;28;20042;-40
2023/12/12 00:56:49;;;;;;;4.10;1.52;;;;;;;8.96;67.77;100222.09;5002738;28;20033;-39
2023/12/12 00:59:15;;;;;;;2.85;1.35;;;;;;;8.81;68.43;100237.78;5004476;28;20029;-40
2023/12/12 01:01:40;;;;;;;4.28;1.35;;;;;;;8.71;68.52;100236.63;5004826;28;20034;-40
2023/12/12 01:04:07;;;;;;;2.13;0.93;;;;;;;8.73;68.80;100242.63;4995721;28;20044;-39
2023/12/12 01:06:33;;;;;;;2.75;1.25;;;;;;;8.81;68.56;100244.81;4994686;28;20481;-39
2023/12/12 01:08:59;;;;;;;3.75;1.38;;;;;;;8.68;68.83;100250.75;5002238;28;20033;-38
2023/12/12 01:11:24;;;;;;;1.63;0.85;;;;;;;8.68;68.95;100247.31;4996644;28;20068;-39
2023/12/12 01:13:50;;;;;;;2.58;1.23;;;;;;;8.82;68.71;100260.47;5004931;28;20045;-39
2023/12/12 01:16:15;;;;;;;3.03;1.55;;;;;;;8.82;68.52;100272.72;5003584;28;20077;-39
2023/12/12 01:18:41;;;;;;;3.60;1.58;;;;;;;8.53;69.82;100270.88;5003640;28;20057;-39
2023/12/12 01:21:07;;;;;;;3.53;1.52;;;;;;;8.77;69.18;100275.63;4995443;28;20519;-39
2023/12/12 01:23:50;;;;;;;3.38;1.77;;;;;;;8.52;70.01;100276.19;4997690;28;20786;-40
2023/12/12 01:26:16;;;;;;;3.00;1.27;;;;;;;8.93;68.38;100277.34;4997820;28;20115;-39
2023/12/12 01:28:41;;;;;;;4.45;1.92;;;;;;;8.78;69.66;100269.44;4991845;28;20385;-39
2023/12/12 01:31:07;;;;;;;4.75;1.80;;;;;;;8.82;69.67;100276.22;4980694;28;20524;-39
2023/12/12 01:33:32;;;;;;;4.43;2.33;;;;;;;8.99;68.81;100279.63;5009034;28;20030;-39
2023/12/12 01:35:58;;;;;;;3.83;2.10;;;;;;;9.02;68.68;100282.06;5012058;28;20064;-39
2023/12/12 01:38:23;;;;;;;7.20;2.38;;;;;;;8.63;69.90;100280.81;5007024;28;20052;-39
2023/12/12 01:40:49;;;;;;;4.55;2.30;;;;;;;8.74;69.96;100286.28;5011656;28;20036;-39
2023/12/12 01:43:28;;;;;;;5.72;2.30;;;;;;;8.77;69.72;100288.75;5001379;28;20087;-39
2023/12/12 01:45:55;;;;;;;5.05;2.22;;;;;;;8.85;69.42;100301.41;5005723;28;20025;-39
2023/12/12 01:48:22;;;;;;;3.13;1.67;;;;;;;9.02;69.02;100297.81;5003649;28;20030;-39
2023/12/12 01:50:49;;;;;;;6.28;2.28;;;;;;;8.74;69.56;100302.03;5005234;28;20121;-39
2023/12/12 01:53:16;;;;;;;3.33;1.70;;;;;;;8.80;69.69;100309.56;5002537;28;20034;-39
2023/12/12 01:55:42;;;;;;;5.20;1.92;;;;;;;9.00;69.24;100310.16;5008217;28;20500;-39
2023/12/12 01:58:10;;;;;;;5.05;1.85;;;;;;;8.90;69.33;100315.13;5006464;28;20034;-39
2023/12/12 02:00:36;;;;;;;4.03;1.77;;;;;;;8.93;69.03;100314.94;5005365;28;20033;-38
2023/12/12 02:03:01;;;;;;;5.63;2.20;;;;;;;9.11;68.82;100320.03;5007358;28;20511;-39
2023/12/12 02:05:28;;;;;;;3.90;2.40;;;;;;;8.83;68.94;100314.63;4992016;28;20065;-39
2023/12/12 02:07:54;;;;;;;2.83;1.40;;;;;;;8.69;69.27;100323.28;4998055;28;24628;-39
2023/12/12 02:10:20;;;;;;;4.47;2.08;;;;;;;8.88;69.35;100324.00;5000159;28;20034;-39
2023/12/12 02:12:45;;;;;;;2.83;1.58;;;;;;;8.68;70.02;100331.25;4985062;28;20042;-39
2023/12/12 02:15:11;;;;;;;2.92;1.50;;;;;;;8.80;69.14;100317.44;4984332;28;20053;-38
2023/12/12 02:17:36;;;;;;;3.17;1.35;;;;;;;8.92;69.42;100321.13;5011065;28;20587;-39
2023/12/12 02:20:02;;;;;;;3.80;1.60;;;;;;;8.82;69.28;100317.31;4996863;28;20037;-40
2023/12/12 02:22:27;;;;;;;6.43;2.38;;;;;;;8.65;70.07;100320.91;4999440;28;20068;-39
2023/12/12 02:24:53;;;;;;;3.75;1.70;;;;;;;8.96;68.71;100321.78;4998046;28;20061;-39
2023/12/12 02:27:19;;;;;;;4.25;2.30;;;;;;;8.58;69.50;100324.81;5003591;28;20029;-40
2023/12/12 02:29:45;;;;;;;5.20;2.15;;;;;;;8.79;69.23;100323.59;4996330;28;20026;-39
2023/12/12 02:32:10;;;;;;;4.75;2.28;;;;;;;8.69;68.86;100328.53;4987141;28;20182;-39
2023/12/12 02:34:36;;;;;;;4.03;2.53;;;;;;;8.78;69.36;100319.28;4995156;28;20384;-41
2023/12/12 02:37:01;;;;;;;5.40;2.28;;;;;;;8.79;69.41;100307.88;5009577;28;20025;-39
2023/12/12 02:39:27;;;;;;;4.60;2.25;;;;;;;8.89;69.23;100309.94;4986937;28;20386;-39
2023/12/12 02:41:52;;;;;;;3.90;2.00;;;;;;;9.00;68.35;100320.66;5002778;28;20038;-39
2023/12/12 02:44:18;;;;;;;5.63;2.85;;;;;;;9.00;68.42;100331.16;5003534;28;20030;-40
2023/12/12 02:46:43;;;;;;;7.25;2.45;;;;;;;8.88;68.70;100327.47;4995800;28;21011;-39
2023/12/12 02:49:09;;;;;;;5.00;2.45;;;;;;;8.93;68.45;100322.78;4995609;28;20059;-39
2023/12/12 02:51:35;;;;;;;4.88;2.60;;;;;;;9.12;67.90;100325.22;4998804;28;20030;-39
2023/12/12 02:54:00;;;;;;;5.97;2.92;;;;;;;9.17;67.90;100331.97;5012094;28;20577;-39
2023/12/12 02:56:31;;;;;;;5.30;2.92;;;;;;;9.25;67.45;100332.38;4995962;28;20045;-39
2023/12/12 02:58:56;;;;;;;6.05;3.50;;;;;;;9.07;68.08;100321.19;5003070;28;20489;-40
2023/12/12 03:01:22;;;;;;;6.25;2.90;;;;;;;9.25;67.55;100327.94;4997898;28;20076;-39
2023/12/12 03:03:47;;;;;;;6.97;3.53;;;;;;;9.07;67.76;100329.06;5004168;28;20068;-39
2023/12/12 03:06:13;;;;;;;5.78;2.72;;;;;;;9.05;67.91;100337.00;4999125;28;20440;-39
2023/12/12 03:08:38;;;;;;;6.80;3.75;;;;;;;8.92;68.28;100344.75;4999864;28;20406;-39
2023/12/12 03:11:04;;;;;;;8.07;3.35;;;;;;;9.03;68.19;100338.88;4995497;28;20685;-39
2023/12/12 03:13:29;;;;;;;6.45;3.20;;;;;;;9.00;68.32;100341.66;5003051;28;20033;-40
2023/12/12 03:15:54;;;;;;;7.35;3.10;;;;;;;9.17;67.62;100343.31;5002889;28;21207;-39
2023/12/12 03:18:20;;;;;;;9.05;4.22;;;;;;;9.27;67.26;100346.25;4995070;28;20053;-50
2023/12/12 03:20:45;;;;;;;7.63;3.35;;;;;;;9.29;67.45;100347.03;5001534;28;20045;-39
2023/12/12 03:23:11;;;;;;;9.20;4.82;;;;;;;9.00;68.12;100352.16;4990971;28;20053;-40
2023/12/12 03:25:37;;;;;;;9.02;3.80;;;;;;;9.19;67.86;100353.72;4985358;28;20679;-39
2023/12/12 03:28:02;;;;;;;9.82;4.13;;;;;;;9.19;67.77;100356.34;5010848;28;20541;-39
2023/12/12 03:30:28;;;;;;;7.45;3.30;;;;;;;9.13;67.87;100353.16;5003666;28;20408;-38
2023/12/12 03:32:53;;;;;;;8.23;2.95;;;;;;;8.76;68.46;100354.44;4999692;28;20113;-40
2023/12/12 03:35:19;;;;;;;6.10;3.35;;;;;;;8.73;68.66;100360.66;5016437;28;20073;-39
2023/12/12 03:37:44;;;;;;;7.80;2.75;;;;;;;9.06;68.07;100357.06;5000927;28;20052;-39
2023/12/12 03:40:10;;;;;;;7.00;2.95;;;;;;;9.20;67.67;100368.53;5001922;28;20037;-40
2023/12/12 03:42:36;;;;;;;6.97;3.58;;;;;;;9.11;68.08;100359.41;4995228;28;20108;-39
2023/12/12 03:45:03;;;;;;;6.00;2.92;;;;;;;9.33;67.07;100363.44;5006760;28;20033;-40
2023/12/12 03:47:28;;;;;;;5.30;3.00;;;;;;;9.00;67.94;100363.50;4992944;28;20053;-39
2023/12/12 03:49:53;;;;;;;10.02;2.63;;;;;;;9.24;67.59;100364.81;4995477;28;20030;-39
2023/12/12 03:52:19;;;;;;;5.38;2.97;;;;;;;9.26;67.38;100368.19;5002488;28;20053;-40
2023/12/12 03:54:44;;;;;;;8.00;3.25;;;;;;;8.94;68.17;100373.53;4999154;28;20400;-39
2023/12/12 03:57:10;;;;;;;8.45;3.33;;;;;;;9.22;67.30;100366.69;5013549;28;20081;-40
2023/12/12 03:59:35;;;;;;;6.82;3.05;;;;;;;9.28;67.28;100366.34;4995504;28;20381;-40
2023/12/12 04:02:01;;;;;;;7.70;3.05;;;;;;;9.27;67.45;100354.97;5003105;28;20071;-39
2023/12/12 04:04:26;;;;;;;9.52;3.42;;;;;;;8.91;68.55;100352.69;5006883;28;20719;-39
2023/12/12 04:06:52;;;;;;;7.30;3.75;;;;;;;9.09;68.28;100359.50;5001788;28;20048;-40
2023/12/12 04:09:17;;;;;;;7.43;3.20;;;;;;;9.15;68.01;100369.66;4997369;28;20535;-40
2023/12/12 04:11:43;;;;;;;7.35;3.53;;;;;;;9.20;67.96;100368.53;5005041;28;20031;-40
2023/12/12 04:14:08;;;;;;;7.30;3.60;;;;;;;9.29;67.91;100373.28;5008729;28;20048;-40
2023/12/12 04:16:33;;;;;;;6.53;3.30;;;;;;;9.28;67.50;100375.03;5004086;28;20175;-40
2023/12/12 04:18:59;;;;;;;7.03;3.85;;;;;;;9.40;67.25;100376.09;5009971;28;20117;-39
2023/12/12 04:21:24;;;;;;;5.32;3.08;;;;;;;9.63;67.16;100380.94;5014753;28;20061;-40
2023/12/12 04:23:50;;;;;;;6.50;3.47;;;;;;;9.70;66.80;100383.09;5000343;28;20052;-40
2023/12/12 04:26:15;;;;;;;6.63;3.20;;;;;;;9.68;66.57;100395.50;5015863;28;20026;-40
2023/12/12 04:28:41;;;;;;;5.93;3.47;;;;;;;9.79;66.54;100392.22;5007618;28;20037;-41
2023/12/12 04:31:06;;;;;;;7.57;4.05;;;;;;;9.84;66.29;100389.31;4999085;28;20939;-40
2023/12/12 04:33:32;;;;;;;8.63;3.88;;;;;;;9.76;66.06;100400.28;5002340;28;20046;-39
2023/12/12 04:35:57;;;;;;;11.48;5.22;;;;;;;9.81;65.99;100390.34;5001621;28;20038;-40
2023/12/12 04:38:22;;;;;;;9.25;4.30;;;;;;;9.74;66.14;100397.75;5003683;28;20049;-40
2023/12/12 04:40:48;;;;;;;9.07;4.68;;;;;;;9.67;66.14;100396.41;5007260;28;20485;-40
2023/12/12 04:43:13;;;;;;;11.93;6.55;;;;;;;9.51;66.34;100400.88;5006991;28;20509;-40
2023/12/12 04:45:39;;;;;;;8.75;4.63;;;;;;;8.99;67.14;100402.97;5010896;28;20029;-39
2023/12/12 04:48:05;;;;;;;9.55;4.78;;;;;;;9.62;66.37;100401.09;5003278;28;20037;-40
2023/12/12 04:50:30;;;;;;;8.23;5.30;;;;;;;9.55;66.52;100405.88;5003524;28;20025;-40
2023/12/12 04:52:56;;;;;;;9.85;5.32;;;;;;;9.49;66.69;100410.63;5002703;28;20030;-40
2023/12/12 04:55:21;;;;;;;10.90;4.80;;;;;;;9.57;66.59;100408.41;5002375;28;20037;-40
2023/12/12 04:57:47;;;;;;;10.18;4.40;;;;;;;9.69;66.30;100406.81;5004927;28;20038;-40
2023/12/12 05:00:13;;;;;;;8.60;4.65;;;;;;;9.76;66.26;100409.00;4995357;28;20038;-40
2023/12/12 05:02:42;;;;;;;7.88;3.90;;;;;;;9.61;65.72;100404.66;5004937;28;20046;-39
2023/12/12 05:05:08;;;;;;;9.55;4.40;;;;;;;9.49;66.55;100408.00;5006436;28;20476;-40
2023/12/12 05:07:34;;;;;;;7.70;4.35;;;;;;;9.60;66.43;100406.44;4998727;28;20033;-39
2023/12/12 05:10:00;;;;;;;8.02;4.32;;;;;;;9.37;66.82;100402.53;5005840;28;20076;-40
2023/12/12 05:12:25;;;;;;;8.35;4.38;;;;;;;9.24;66.80;100402.41;5009213;28;20402;-40
2023/12/12 05:14:51;;;;;;;10.95;5.60;;;;;;;9.44;66.57;100395.16;5009027;28;20443;-40
2023/12/12 05:17:17;;;;;;;6.88;4.10;;;;;;;9.44;66.50;100393.38;4999241;28;20490;-40
2023/12/12 05:19:42;;;;;;;11.20;4.68;;;;;;;9.30;66.78;100395.97;4999429;28;20038;-40
2023/12/12 05:22:08;;;;;;;9.65;4.95;;;;;;;9.09;67.45;100404.13;5007042;28;20084;-39
2023/12/12 05:24:33;;;;;;;8.35;5.07;;;;;;;9.21;66.98;100401.75;5005987;28;20057;-40
2023/12/12 05:26:59;;;;;;;10.80;4.80;;;;;;;9.10;67.18;100410.22;5004762;28;20034;-39
2023/12/12 05:29:24;;;;;;;13.60;5.85;;;;;;;9.32;67.02;100411.63;5001100;28;20060;-40
2023/12/12 05:31:50;;;;;;;11.32;4.40;;;;;;;9.37;66.95;100415.69;4994318;28;20033;-39
2023/12/12 05:34:15;;;;;;;9.60;5.63;;;;;;;9.43;66.68;100420.59;4992033;28;20405;-40
2023/12/12 05:36:41;;;;;;;10.63;5.43;;;;;;;9.60;66.58;100429.25;5005545;28;20030;-40
2023/12/12 05:39:09;;;;;;;10.18;5.10;;;;;;;9.63;66.22;100429.06;4999947;28;20084;-40
2023/12/12 05:41:35;;;;;;;8.52;4.75;;;;;;;9.62;65.96;100430.00;4999078;28;20021;-40
2023/12/12 05:44:01;;;;;;;11.93;5.25;;;;;;;9.71;65.94;100426.84;5001568;28;20018;-39
2023/12/12 05:46:26;;;;;;;13.88;5.72;;;;;;;9.80;65.85;100435.09;5006577;28;20121;-40
2023/12/12 05:48:52;;;;;;;9.90;5.13;;;;;;;9.70;65.79;100440.03;5008369;28;20057;-40
2023/12/12 05:51:17;;;;;;;8.73;4.57;;;;;;;9.76;65.58;100444.94;5003396;28;20409;-39
2023/12/12 05:53:43;;;;;;;12.35;5.55;;;;;;;9.72;65.61;100444.28;5007687;28;20045;-39
2023/12/12 05:56:08;;;;;;;11.95;5.22;;;;;;;9.79;65.33;100450.03;5003044;28;20060;-40
2023/12/12 05:58:34;;;;;;;9.85;4.82;;;;;;;9.59;65.62;100453.84;5004876;28;21629;-40
2023/12/12 06:00:59;;;;;;;11.63;5.55;;;;;;;9.69;65.61;100454.97;4992742;28;20428;-39
2023/12/12 06:03:25;;;;;;;9.93;4.85;;;;;;;9.65;65.76;100448.22;5006485;28;20042;-39
2023/12/12 06:05:50;;;;;;;10.98;5.57;;;;;;;9.73;65.57;100450.38;5002032;28;20125;-39
2023/12/12 06:08:16;;;;;;;10.65;5.70;;;;;;;9.85;65.47;100460.16;4994269;28;20129;-39
2023/12/12 06:10:41;;;;;;;9.70;5.20;;;;;;;9.71;65.36;100468.88;5002235;28;20056;-39
2023/12/12 06:13:08;;;;;;;9.38;5.35;;;;;;;9.82;65.38;100470.03;4993759;28;20033;-39
2023/12/12 06:15:33;;;;;;;9.43;4.85;;;;;;;9.87;65.47;100473.22;5006796;28;20085;-41
2023/12/12 06:17:59;;;;;;;8.98;4.80;;;;;;;9.91;65.39;100470.31;4998981;28;20034;-40
2023/12/12 06:20:25;;;;;;;9.68;5.45;;;;;;;9.94;65.22;100468.47;4997989;28;20038;-40
2023/12/12 06:22:50;;;;;;;11.38;4.97;;;;;;;9.90;64.92;100480.94;4995843;28;20048;-40
2023/12/12 06:25:16;;;;;;;13.00;6.28;;;;;;;9.98;64.92;100478.69;4994928;28;20480;-40
2023/12/12 06:27:41;;;;;;;9.80;4.80;;;;;;;10.01;64.88;100475.03;4993815;28;20673;-40
2023/12/12 06:30:07;;;;;;;7.63;3.88;;;;;;;9.78;64.68;100477.25;4993098;28;20034;-40
2023/12/12 06:32:33;;;;;;;13.90;6.05;;;;;;;9.79;65.15;100485.97;5001843;28;20042;-40
2023/12/12 06:34:59;;;;;;;12.93;6.80;;;;;;;9.74;65.18;100483.59;4997189;28;20026;-39
2023/12/12 06:37:25;;;;;;;12.77;5.75;;;;;;;9.90;64.93;100486.19;5007357;28;20068;-39
2023/12/12 06:39:51;;;;;;;12.18;6.10;;;;;;;10.05;64.68;100490.53;5009836;28;20039;-40
2023/12/12 06:42:17;;;;;;;12.05;5.43;;;;;;;10.03;64.54;100495.03;5004430;28;22599;-42
2023/12/12 06:44:42;;;;;;;14.18;5.47;;;;;;;9.91;64.87;100491.34;5005801;28;20030;-40
2023/12/12 06:47:09;;;;;;;14.50;6.50;;;;;;;10.04;64.70;100493.25;4995972;28;20548;-40
2023/12/12 06:49:34;;;;;;;16.27;8.68;;;;;;;9.98;64.73;100502.34;5002518;28;20037;-39
2023/12/12 06:52:01;;;;;;;14.30;7.68;;;;;;;10.09;64.43;100493.84;5002163;28;20033;-40
2023/12/12 06:54:27;;;;;;;13.95;6.57;;;;;;;10.18;64.42;100497.69;5002010;28;20523;-40
2023/12/12 06:56:52;;;;;;;17.90;7.43;;;;;;;10.19;64.22;100499.38;5007752;28;20025;-40
2023/12/12 06:59:17;;;;;;;19.80;7.95;;;;;;;10.16;64.05;100504.81;5002627;28;20130;-40
2023/12/12 07:01:43;;;;;;;16.50;6.70;;;;;;;10.25;64.13;100504.25;4998311;28;20070;-41
2023/12/12 07:04:09;;;;;;;13.98;5.72;;;;;;;10.29;64.06;100505.78;5002144;28;20041;-40
2023/12/12 07:06:34;;;;;;;14.13;6.43;;;;;;;10.29;64.10;100504.91;5000763;28;20033;-40
2023/12/12 07:09:00;;;;;;;10.90;5.65;;;;;;;10.30;63.98;100507.47;5004337;28;20690;-40
2023/12/12 07:11:25;;;;;;;11.40;5.30;;;;;;;10.34;63.90;100516.88;5005175;28;20500;-41
2023/12/12 07:13:51;;;;;;;39.33;17.70;;;;;;;10.34;64.08;100522.13;5007572;28;21259;-40
2023/12/12 07:16:17;;;;;;;38.28;17.42;;;;;;;10.40;64.09;100523.56;5007532;28;20028;-40
2023/12/12 07:18:42;;;;;;;22.75;10.68;;;;;;;10.18;63.78;100524.00;5010348;28;20021;-40
2023/12/12 07:21:08;;;;;;;20.05;10.50;;;;;;;10.20;63.95;100524.75;5004454;28;20048;-40
2023/12/12 07:23:34;;;;;;;16.45;8.40;;;;;;;10.27;64.18;100520.78;4998111;28;20041;-41
2023/12/12 07:26:00;;;;;;;17.05;8.50;;;;;;;10.33;64.19;100525.69;4999681;28;20069;-40
2023/12/12 07:28:25;;;;;;;17.65;9.13;;;;;;;10.41;64.01;100534.94;5003478;28;20054;-41
2023/12/12 07:30:53;;;;;;;12.50;7.18;;;;;;;10.45;63.83;100534.66;5005440;28;20063;-40
2023/12/12 07:33:18;;;;;;;15.93;8.75;;;;;;;10.42;63.87;100529.59;5002034;28;20881;-40
2023/12/12 07:35:44;;;;;;;20.08;7.55;;;;;;;10.28;63.86;100540.91;5000246;28;20127;-40
2023/12/12 07:38:10;;;;;;;20.15;7.45;;;;;;;10.33;63.84;100538.84;5008548;28;20041;-41
2023/12/12 07:40:35;;;;;;;8.48;4.65;;;;;;;10.35;63.97;100531.72;5006477;28;20042;-41
2023/12/12 07:43:01;;;;;;;18.20;8.50;;;;;;;10.41;63.79;100534.94;5003255;28;20052;-40
2023/12/12 07:45:26;;;;;;;17.52;7.82;;;;;;;10.42;63.85;100536.63;5017142;28;20030;-40
2023/12/12 07:47:52;;;;;;;12.18;6.07;;;;;;;10.40;63.61;100538.50;5007414;28;20123;-40
2023/12/12 07:50:17;;;;;;;13.75;5.75;;;;;;;10.31;63.26;100530.19;5003658;28;20101;-40
2023/12/12 07:52:43;;;;;;;12.02;5.72;;;;;;;10.31;63.45;100535.47;5007462;28;20041;-40
2023/12/12 07:55:09;;;;;;;24.10;9.75;;;;;;;10.25;63.61;100541.06;5003967;28;20690;-40
2023/12/12 07:57:35;;;;;;;15.30;7.90;;;;;;;10.16;63.51;100537.22;5011464;28;20037;-41
2023/12/12 08:00:01;;;;;;;12.77;6.82;;;;;;;10.16;63.59;100544.25;5005477;28;20036;-41
2023/12/12 08:02:27;;;;;;;11.27;4.80;;;;;;;10.12;63.57;100540.13;5003744;28;20038;-40
2023/12/12 08:04:52;;;;;;;10.35;4.47;;;;;;;10.15;63.40;100545.19;5014130;28;20384;-40
2023/12/12 08:07:18;;;;;;;8.13;3.70;;;;;;;10.15;63.27;100539.94;5014536;28;20025;-40
2023/12/12 08:09:44;;;;;;;8.90;4.15;;;;;;;10.21;63.30;100545.69;5008237;28;20030;-40
2023/12/12 08:12:09;;;;;;;11.55;4.95;;;;;;;10.26;63.30;100547.19;5004923;28;20140;-41
2023/12/12 08:14:35;;;;;;;10.27;5.97;;;;;;;10.11;63.40;100546.31;5008604;28;20038;-40
2023/12/12 08:17:00;;;;;;;16.45;6.32;;;;;;;10.19;63.53;100551.97;5010698;28;20042;-41
2023/12/12 08:19:25;;;;;;;14.25;6.00;;;;;;;10.25;63.37;100548.97;5001671;28;20049;-40
2023/12/12 08:21:51;;;;;;;13.30;6.07;;;;;;;10.21;63.58;100557.97;5007710;28;20378;-40
2023/12/12 08:24:16;;;;;;;9.52;4.38;;;;;;;10.18;63.31;100550.28;5004685;28;20591;-41
2023/12/12 08:26:43;;;;;;;12.82;4.30;;;;;;;10.26;63.39;100548.03;5003554;28;20116;-40
2023/12/12 08:29:18;;;;;;;7.65;4.05;;;;;;;10.30;63.14;100548.69;5010387;28;20029;-41
2023/12/12 08:31:43;;;;;;;14.80;4.75;;;;;;;10.25;63.13;100553.38;5003381;28;20025;-40
2023/12/12 08:34:09;;;;;;;12.40;6.28;;;;;;;10.28;62.88;100556.69;5002834;28;20045;-41
2023/12/12 08:36:35;;;;;;;9.75;5.43;;;;;;;10.22;62.90;100562.28;5013364;28;20031;-42
2023/12/12 08:39:01;;;;;;;10.88;5.45;;;;;;;10.13;63.10;100568.09;5005363;28;20057;-40
2023/12/12 08:41:28;;;;;;;14.32;4.90;;;;;;;10.11;63.23;100568.19;5002341;28;20061;-40
2023/12/12 08:43:54;;;;;;;10.63;4.65;;;;;;;10.16;63.27;100557.41;4999857;28;20030;-40
2023/12/12 08:46:26;;;;;;;14.35;6.43;;;;;;;10.07;63.42;100564.88;5010592;28;20548;-40
2023/12/12 08:48:52;;;;;;;15.25;6.10;;;;;;;10.06;63.55;100557.09;5008139;28;20040;-40
2023/12/12 08:51:17;;;;;;;19.58;9.68;;;;;;;10.02;63.69;100558.22;5004576;28;20066;-41
2023/12/12 08:53:43;;;;;;;17.45;8.50;;;;;;;10.09;63.78;100561.31;5006568;28;20033;-40
2023/12/12 08:56:14;;;;;;;12.18;5.70;;;;;;;10.18;63.69;100563.44;5008135;28;20401;-41
2023/12/12 08:58:40;;;;;;;13.68;6.15;;;;;;;10.17;63.55;100564.38;5007316;28;20056;-40
2023/12/12 09:01:06;;;;;;;5.32;3.00;;;;;;;10.20;63.33;100558.94;5004591;28;20473;-41
2023/12/12 09:03:31;;;;;;;10.15;4.25;;;;;;;10.26;63.53;100563.81;5006824;28;20038;-40
2023/12/12 09:05:56;;;;;;;13.98;5.35;;;;;;;10.31;63.57;100561.75;5013333;28;20035;-41
2023/12/12 09:08:22;;;;;;;10.45;5.13;;;;;;;10.33;63.61;100559.03;5005200;28;20025;-41
2023/12/12 09:10:48;;;;;;;7.50;4.32;;;;;;;10.38;63.36;100567.53;5012095;28;20029;-41
2023/12/12 09:13:13;;;;;;;15.27;7.25;;;;;;;10.36;63.08;100567.56;5009441;28;20065;-40
2023/12/12 09:15:39;;;;;;;20.38;7.32;;;;;;;10.43;63.37;100569.88;5004842;28;20064;-40
2023/12/12 09:18:05;;;;;;;15.10;7.07;;;;;;;10.41;62.91;100569.13;4999310;28;20647;-40
2023/12/12 09:20:30;;;;;;;17.40;6.05;;;;;;;10.29;62.96;100573.28;5007571;28;20037;-39
2023/12/12 09:22:56;;;;;;;9.57;5.43;;;;;;;10.29;63.07;100579.41;4999683;28;20042;-40
2023/12/12 09:25:21;;;;;;;16.23;6.03;;;;;;;10.34;63.15;100581.75;5001062;28;20716;-40
2023/12/12 09:27:47;;;;;;;12.32;5.57;;;;;;;10.30;63.19;100586.38;5003960;28;20575;-40
2023/12/12 09:30:12;;;;;;;16.35;5.55;;;;;;;10.27;63.17;100586.53;5003191;28;20041;-40
2023/12/12 09:32:38;;;;;;;10.27;5.53;;;;;;;10.29;63.41;100586.44;4996962;28;20029;-40
2023/12/12 09:35:04;;;;;;;9.30;4.43;;;;;;;10.36;63.49;100574.63;5022683;28;20076;-41
2023/12/12 09:37:29;;;;;;;16.95;6.18;;;;;;;10.39;63.33;100578.88;5007431;28;20523;-40
2023/12/12 09:39:55;;;;;;;13.15;5.13;;;;;;;10.39;63.27;100581.50;5008039;28;20036;-40
2023/12/12 09:42:24;;;;;;;10.38;4.32;;;;;;;10.43;63.15;100575.13;5005442;28;20041;-40
2023/12/12 09:44:58;;;;;;;24.45;9.85;;;;;;;10.45;63.13;100589.06;5009124;28;20034;-40
2023/12/12 09:47:26;;;;;;;26.90;11.57;;;;;;;10.42;62.98;100574.31;5005970;28;20041;-40
2023/12/12 09:49:51;;;;;;;14.30;4.65;;;;;;;10.44;62.88;100582.09;5008835;28;20018;-41
2023/12/12 09:52:18;;;;;;;12.20;4.40;;;;;;;10.45;62.70;100579.34;5006553;28;20110;-41
2023/12/12 09:54:45;;;;;;;9.75;3.80;;;;;;;10.32;62.76;100587.13;5006999;28;20114;-41
2023/12/12 09:57:11;;;;;;;17.83;6.90;;;;;;;10.37;62.78;100581.59;5021088;28;20515;-41
2023/12/12 09:59:36;;;;;;;12.48;5.10;;;;;;;10.33;62.92;100575.66;5005828;28;20034;-40
2023/12/12 10:02:04;;;;;;;13.32;5.15;;;;;;;10.31;62.66;100580.16;4988340;28;20030;-40
2023/12/12 10:04:29;;;;;;;8.60;4.30;;;;;;;10.19;62.86;100581.72;5010545;28;20045;-40
2023/12/12 10:06:59;;;;;;;8.88;3.65;;;;;;;10.26;62.99;100587.47;5015747;28;20030;-40
2023/12/12 10:09:24;;;;;;;12.35;3.63;;;;;;;10.26;63.07;100584.84;5010130;28;20029;-40
2023/12/12 10:11:50;;;;;;;8.57;4.47;;;;;;;10.30;63.02;100575.84;5003713;28;20038;-41
2023/12/12 10:14:38;;;;;;;10.60;4.07;;;;;;;10.27;62.81;100586.53;5012783;28;20029;-40
2023/12/12 10:17:04;;;;;;;9.68;4.78;;;;;;;10.00;63.13;100573.22;5007827;28;20029;-41
2023/12/12 10:19:31;;;;;;;10.43;3.78;;;;;;;10.15;62.99;100582.84;5006037;28;20580;-40
2023/12/12 10:22:01;;;;;;;14.65;5.45;;;;;;;10.17;62.87;100574.88;5004046;28;20049;-40
2023/12/12 10:24:27;;;;;;;8.98;3.85;;;;;;;10.18;62.94;100576.56;5011870;28;20080;-41
2023/12/12 10:26:52;;;;;;;12.63;4.05;;;;;;;10.13;62.94;100578.63;5005834;28;20026;-41
2023/12/12 10:29:20;;;;;;;33.17;15.48;;;;;;;10.17;62.92;100582.75;5005254;28;20393;-40
2023/12/12 10:31:46;;;;;;;33.53;15.80;;;;;;;10.16;62.98;100576.66;5012905;28;20038;-41
2023/12/12 10:34:12;;;;;;;63.03;24.25;;;;;;;10.16;63.01;100578.44;5005960;28;20033;-40
2023/12/12 10:36:41;;;;;;;45.78;19.48;;;;;;;10.20;63.01;100575.53;4993539;28;20061;-40
2023/12/12 10:39:14;;;;;;;19.90;9.07;;;;;;;10.22;63.08;100571.03;5011743;28;20034;-40
2023/12/12 10:41:40;;;;;;;14.93;6.97;;;;;;;10.21;63.02;100574.59;5003259;28;20513;-40
2023/12/12 10:44:08;;;;;;;19.98;5.82;;;;;;;10.27;62.92;100567.31;5009024;28;20085;-41
2023/12/12 10:46:39;;;;;;;14.65;6.53;;;;;;;10.21;62.65;100565.84;5006358;28;20447;-41
2023/12/12 10:49:10;;;;;;;12.05;5.20;;;;;;;10.26;62.75;100574.31;5005483;28;20029;-41
2023/12/12 10:51:36;;;;;;;12.00;4.45;;;;;;;10.26;62.98;100571.69;5005940;28;20033;-41
2023/12/12 10:54:04;;;;;;;10.63;5.00;;;;;;;10.22;62.88;100578.06;5008000;28;20029;-41
2023/12/12 10:56:35;;;;;;;14.15;5.40;;;;;;;10.02;62.92;100566.09;5004934;28;20041;-41
2023/12/12 10:59:03;;;;;;;15.63;5.05;;;;;;;10.11;62.89;100564.72;4995667;28;20374;-41
2023/12/12 11:01:29;;;;;;;19.55;5.85;;;;;;;10.03;62.96;100565.16;5003711;28;20497;-39
2023/12/12 11:03:57;;;;;;;16.00;5.53;;;;;;;10.13;63.08;100565.47;5004573;28;20063;-40
2023/12/12 11:06:24;;;;;;;15.20;5.60;;;;;;;10.12;63.10;100574.28;5003061;28;20042;-40
2023/12/12 11:08:52;;;;;;;14.00;5.43;;;;;;;10.17;63.01;100575.72;5008986;28;20400;-41
2023/12/12 11:11:19;;;;;;;13.57;6.35;;;;;;;10.25;62.99;100562.13;5004303;28;20096;-41
2023/12/12 11:13:46;;;;;;;18.58;7.35;;;;;;;10.26;62.91;100557.72;5003658;28;20033;-41
2023/12/12 11:16:13;;;;;;;12.38;6.10;;;;;;;10.31;62.89;100561.75;4999566;28;20583;-41
2023/12/12 11:18:41;;;;;;;16.38;6.47;;;;;;;10.29;62.77;100558.38;5002790;28;20030;-41
2023/12/12 11:21:06;;;;;;;14.07;5.15;;;;;;;10.32;62.62;100554.69;5006935;28;20018;-41